ADDS METAR Data INFO
IDs: Format: Raw Decoded Include TAF

Data at: 0317 UTC 20 Jul 2018

KEET 200253Z AUTO 00000KT 10SM CLR 25/22 A2997 RMK AO2 SLP141 T02500222 53012
KEET 200153Z AUTO VRB04KT 10SM CLR 26/22 A2995 RMK AO2 SLP132 T02610222
KEET 200053Z AUTO VRB03KT 10SM FEW026 SCT055 26/22 A2995 RMK AO2 SLP135 T02610217
KEET 192353Z AUTO 18003KT 10SM CLR 27/22 A2994 RMK AO2 SLPNO T02720222 10300 20272 53004
KEET 192253Z AUTO 16004KT 10SM CLR 28/22 A2992 RMK AO2 SLPNO T02830222
KEET 192153Z AUTO 33003KT 10SM FEW110 30/23 A2993 RMK AO2 SLPNO T03000228
KEET 192053Z AUTO 32005KT 10SM FEW036 SCT110 30/22 A2993 RMK AO2 LTG DSNT SE AND S SLPNO T03000217 56011
KEET 191953Z AUTO 31007KT 9SM FEW110 28/23 A2993 RMK AO2 SLPNO T02780233
KEET 191853Z AUTO 33004KT 10SM CLR 29/23 A2994 RMK AO2 SLPNO T02890233
KEET 191753Z AUTO 31006KT 10SM CLR 29/23 A2996 RMK AO2 SLPNO T02890233 10300 20244 58006
KEET 191653Z AUTO 30004KT 10SM BKN047 28/23 A2997 RMK AO2 SLPNO T02830233
KEET 191553Z AUTO VRB03KT 10SM CLR 30/23 A2998 RMK AO2 SLPNO T03000228
KEET 191453Z AUTO VRB03KT 10SM FEW110 29/22 A2998 RMK AO2 SLPNO T02890217 53004
KEET 191353Z AUTO VRB03KT 10SM CLR 27/23 A2997 RMK AO2 SLPNO T02670233
KEET 191253Z AUTO 00000KT 10SM CLR 24/22 A2997 RMK AO2 SLPNO T02440222
KEET 191153Z AUTO A2996 RMK AO2 SLPNO 7//// 53010 PWINO
KEET 191053Z AUTO A2994 RMK AO2 SLPNO PWINO $
KEET 190953Z AUTO A2993 RMK AO2 SLPNO PWINO $
KEET 190853Z AUTO A2993 RMK AO2 SLPNO 55000 PWINO $
KEET 190753Z AUTO A2992 RMK AO2 SLPNO PWINO $
KEET 190653Z AUTO A2991 RMK AO2 SLPNO PWINO $
KEET 190553Z AUTO A2993 RMK AO2 SLPNO 58007 PWINO $
KEET 190453Z AUTO A2995 RMK AO2 SLPNO PWINO $
KEET 190353Z AUTO A2995 RMK AO2 SLPNO PWINO $
KEET 190253Z AUTO A2995 RMK AO2 SLPNO 51010 PWINO $
KEET 190153Z AUTO A2995 RMK AO2 SLPNO PWINO $
KEET 190053Z AUTO A2993 RMK AO2 SLPNO PWINO $
KEET 182353Z AUTO A2992 RMK AO2 LTG DSNT NE AND SW AND W SLPNO 6//// 56003 PWINO $
KEET 182253Z AUTO A2992 RMK AO2 LTG DSNT S AND SW SLPNO PWINO $
KEET 182153Z AUTO A2991 RMK AO2 LTG DSNT SE AND S RAE14 TSE15 SLPNO P0001 PWINO $
KEET 182121Z AUTO 23004KT 10SM FEW039 SCT055 27/23 A2992 RMK AO2 LTG DSNT SE RAE14 TSE15 P0001 T02670228
KEET 182053Z AUTO VRB04KT 3SM TSRA BR FEW038 BKN055 OVC085 24/22 A2994 RMK AO2 LTG DSNT SE RAB29 TSB1958E13B19 SLP130 P0020 60020 T02390217 55013
KEET 182046Z AUTO VRB06G15KT 3SM -TSRA BR SCT041 BKN050 OVC080 24/22 A2995 RMK AO2 LTG DSNT N AND SE RAB29 TSB1958E13B19 P0018 T02390217
KEET 182032Z AUTO 02012G22KT 1 1/4SM +TSRA FEW032 BKN044 OVC110 24/22 A2993 RMK AO2 LTG DSNT N RAB29 TSB1958E13B19 P0011 T02440217
KEET 182004Z AUTO 31004KT 10SM TS FEW065 FEW080 SCT110 33/24 A2993 RMK AO2 LTG DSNT N AND NE TSB1958 T03280239
KEET 181953Z AUTO 30006KT 10SM VCTS FEW048 FEW065 SCT080 32/24 A2993 RMK AO2 LTG DSNT N AND NE SLP127 T03220239
KEET 181853Z AUTO 28005KT 10SM FEW038 BKN060 BKN070 32/23 A2995 RMK AO2 SLP135 T03170228
KEET 181753Z AUTO 35003KT 10SM FEW033 SCT046 SCT055 32/23 A2997 RMK AO2 SLP141 T03170233 10317 20228 58013
KEET 181653Z AUTO VRB03KT 10SM CLR 31/24 A2999 RMK AO2 SLP147 T03110239
KEET 181553Z AUTO 00000KT 10SM CLR 29/24 A3001 RMK AO2 SLP154 T02940239